Ashbury, Pennsylvania
Current Conditions -  °F | °C
As of 12:55 AM on Sunday 23 Nov 2014 (Local Time) from KHZL Reporting Station
Overcast Overcast  
Wind Chill:   Ceiling: 9000
Heat Index:   Visibility: 10mi
Dew Point: -7°   Wind: 0mph
Humidity: 42%   Direction: NA
Pressure: 30.15"   Gusts: NA
Location:  41.1114°N, 76.3684°W
Report Text: KHZL 230555Z AUTO 00000KT 10SM OVC090 05/M07 A3015 RMK AO2
Loading
Personal Weather Stations






























Interactive Weather Map New forecast layout! Learn more

10-Day Weather Forecast

Advertisements
Track Severe Weather on mobile